sensor_id;sensor_type;location;lat;lon;timestamp;P1;durP1;ratioP1;P2;durP2;ratioP2
65896;SDS011;52677;50.898;10.854;2022-07-22T00:00:53;9.27;;;7.47;;
65896;SDS011;52677;50.898;10.854;2022-07-22T00:02:54;9.85;;;7.60;;
65896;SDS011;52677;50.898;10.854;2022-07-22T00:04:54;8.70;;;6.85;;
65896;SDS011;52677;50.898;10.854;2022-07-22T00:06:55;7.55;;;6.75;;
65896;SDS011;52677;50.898;10.854;2022-07-22T00:08:55;9.32;;;7.35;;
65896;SDS011;52677;50.898;10.854;2022-07-22T00:10:56;7.97;;;7.18;;
65896;SDS011;52677;50.898;10.854;2022-07-22T00:12:56;8.07;;;6.57;;
65896;SDS011;52677;50.898;10.854;2022-07-22T00:14:57;9.48;;;7.18;;
65896;SDS011;52677;50.898;10.854;2022-07-22T00:16:57;7.88;;;7.07;;
65896;SDS011;52677;50.898;10.854;2022-07-22T00:18:57;9.00;;;6.82;;
65896;SDS011;52677;50.898;10.854;2022-07-22T00:20:58;9.07;;;6.75;;
65896;SDS011;52677;50.898;10.854;2022-07-22T00:22:58;10.90;;;7.40;;
65896;SDS011;52677;50.898;10.854;2022-07-22T00:24:58;11.05;;;7.18;;
65896;SDS011;52677;50.898;10.854;2022-07-22T00:26:59;8.98;;;7.28;;
65896;SDS011;52677;50.898;10.854;2022-07-22T00:28:59;9.40;;;7.45;;
65896;SDS011;52677;50.898;10.854;2022-07-22T00:31:00;8.95;;;7.20;;
65896;SDS011;52677;50.898;10.854;2022-07-22T00:33:00;8.80;;;6.93;;
65896;SDS011;52677;50.898;10.854;2022-07-22T00:35:01;7.05;;;6.10;;
65896;SDS011;52677;50.898;10.854;2022-07-22T00:37:01;10.02;;;7.05;;
65896;SDS011;52677;50.898;10.854;2022-07-22T00:39:02;7.97;;;6.63;;
65896;SDS011;52677;50.898;10.854;2022-07-22T00:41:02;8.80;;;6.55;;
65896;SDS011;52677;50.898;10.854;2022-07-22T00:43:03;8.98;;;6.38;;
65896;SDS011;52677;50.898;10.854;2022-07-22T00:45:03;8.05;;;6.55;;
65896;SDS011;52677;50.898;10.854;2022-07-22T00:47:05;9.65;;;7.03;;
65896;SDS011;52677;50.898;10.854;2022-07-22T00:49:06;8.13;;;6.85;;
65896;SDS011;52677;50.898;10.854;2022-07-22T00:51:07;10.45;;;6.72;;
65896;SDS011;52677;50.898;10.854;2022-07-22T00:53:08;9.50;;;6.07;;
65896;SDS011;52677;50.898;10.854;2022-07-22T00:55:09;6.53;;;4.93;;
65896;SDS011;52677;50.898;10.854;2022-07-22T00:57:09;8.63;;;5.63;;
65896;SDS011;52677;50.898;10.854;2022-07-22T00:59:10;5.90;;;4.47;;
65896;SDS011;52677;50.898;10.854;2022-07-22T01:01:11;5.35;;;4.50;;
65896;SDS011;52677;50.898;10.854;2022-07-22T01:03:13;5.22;;;4.40;;
65896;SDS011;52677;50.898;10.854;2022-07-22T01:05:13;5.97;;;4.20;;
65896;SDS011;52677;50.898;10.854;2022-07-22T01:07:14;6.05;;;4.25;;
65896;SDS011;52677;50.898;10.854;2022-07-22T01:09:14;4.95;;;4.38;;
65896;SDS011;52677;50.898;10.854;2022-07-22T01:11:16;6.80;;;4.57;;
65896;SDS011;52677;50.898;10.854;2022-07-22T01:13:17;4.70;;;4.20;;
65896;SDS011;52677;50.898;10.854;2022-07-22T01:15:18;4.93;;;4.07;;
65896;SDS011;52677;50.898;10.854;2022-07-22T01:17:18;4.90;;;4.22;;
65896;SDS011;52677;50.898;10.854;2022-07-22T01:19:19;5.55;;;4.60;;
65896;SDS011;52677;50.898;10.854;2022-07-22T01:21:19;5.13;;;4.38;;
65896;SDS011;52677;50.898;10.854;2022-07-22T01:23:20;5.40;;;4.13;;
65896;SDS011;52677;50.898;10.854;2022-07-22T01:25:21;4.75;;;4.22;;
65896;SDS011;52677;50.898;10.854;2022-07-22T01:27:21;5.63;;;4.32;;
65896;SDS011;52677;50.898;10.854;2022-07-22T01:29:21;4.82;;;3.95;;
65896;SDS011;52677;50.898;10.854;2022-07-22T01:31:22;4.82;;;4.25;;
65896;SDS011;52677;50.898;10.854;2022-07-22T01:33:22;4.68;;;4.25;;
65896;SDS011;52677;50.898;10.854;2022-07-22T01:35:23;4.97;;;3.80;;
65896;SDS011;52677;50.898;10.854;2022-07-22T01:37:23;4.43;;;3.60;;
65896;SDS011;52677;50.898;10.854;2022-07-22T01:39:24;4.40;;;3.45;;
65896;SDS011;52677;50.898;10.854;2022-07-22T01:41:24;5.10;;;3.53;;
65896;SDS011;52677;50.898;10.854;2022-07-22T01:43:24;3.25;;;2.95;;
65896;SDS011;52677;50.898;10.854;2022-07-22T01:45:25;3.83;;;3.10;;
65896;SDS011;52677;50.898;10.854;2022-07-22T01:47:25;3.55;;;3.17;;
65896;SDS011;52677;50.898;10.854;2022-07-22T01:49:26;3.33;;;2.92;;
65896;SDS011;52677;50.898;10.854;2022-07-22T01:51:26;3.30;;;2.78;;
65896;SDS011;52677;50.898;10.854;2022-07-22T01:53:27;5.68;;;3.70;;
65896;SDS011;52677;50.898;10.854;2022-07-22T01:55:27;4.03;;;3.35;;
65896;SDS011;52677;50.898;10.854;2022-07-22T01:57:27;3.53;;;2.88;;
65896;SDS011;52677;50.898;10.854;2022-07-22T01:59:28;5.25;;;3.25;;
65896;SDS011;52677;50.898;10.854;2022-07-22T02:01:28;4.32;;;3.58;;
65896;SDS011;52677;50.898;10.854;2022-07-22T02:03:29;4.55;;;3.75;;
65896;SDS011;52677;50.898;10.854;2022-07-22T02:05:29;5.63;;;3.65;;
65896;SDS011;52677;50.898;10.854;2022-07-22T02:07:30;4.05;;;3.40;;
65896;SDS011;52677;50.898;10.854;2022-07-22T02:09:30;3.80;;;3.45;;
65896;SDS011;52677;50.898;10.854;2022-07-22T02:11:30;3.88;;;3.08;;
65896;SDS011;52677;50.898;10.854;2022-07-22T02:13:31;6.78;;;4.15;;
65896;SDS011;52677;50.898;10.854;2022-07-22T02:15:31;6.50;;;4.30;;
65896;SDS011;52677;50.898;10.854;2022-07-22T02:17:33;6.25;;;4.88;;
65896;SDS011;52677;50.898;10.854;2022-07-22T02:19:34;6.82;;;5.13;;
65896;SDS011;52677;50.898;10.854;2022-07-22T02:21:35;6.38;;;4.78;;
65896;SDS011;52677;50.898;10.854;2022-07-22T02:23:35;5.72;;;5.13;;
65896;SDS011;52677;50.898;10.854;2022-07-22T02:25:35;6.43;;;4.85;;
65896;SDS011;52677;50.898;10.854;2022-07-22T02:27:36;8.43;;;4.95;;
65896;SDS011;52677;50.898;10.854;2022-07-22T02:29:37;6.60;;;4.57;;
65896;SDS011;52677;50.898;10.854;2022-07-22T02:31:38;5.50;;;4.47;;
65896;SDS011;52677;50.898;10.854;2022-07-22T02:33:38;8.65;;;4.85;;
65896;SDS011;52677;50.898;10.854;2022-07-22T02:35:39;6.05;;;4.60;;
65896;SDS011;52677;50.898;10.854;2022-07-22T02:37:39;5.85;;;4.57;;
65896;SDS011;52677;50.898;10.854;2022-07-22T02:39:39;9.13;;;4.43;;
65896;SDS011;52677;50.898;10.854;2022-07-22T02:41:40;10.45;;;4.38;;
65896;SDS011;52677;50.898;10.854;2022-07-22T02:43:41;7.60;;;5.25;;
65896;SDS011;52677;50.898;10.854;2022-07-22T02:45:41;6.40;;;4.60;;
65896;SDS011;52677;50.898;10.854;2022-07-22T02:47:48;7.88;;;5.00;;
65896;SDS011;52677;50.898;10.854;2022-07-22T02:49:50;10.70;;;4.93;;
65896;SDS011;52677;50.898;10.854;2022-07-22T02:51:50;6.20;;;4.47;;
65896;SDS011;52677;50.898;10.854;2022-07-22T02:53:51;8.88;;;5.00;;
65896;SDS011;52677;50.898;10.854;2022-07-22T02:55:51;7.93;;;5.18;;
65896;SDS011;52677;50.898;10.854;2022-07-22T02:57:51;9.68;;;4.82;;
65896;SDS011;52677;50.898;10.854;2022-07-22T02:59:52;6.45;;;4.82;;
65896;SDS011;52677;50.898;10.854;2022-07-22T03:01:52;6.35;;;4.03;;
65896;SDS011;52677;50.898;10.854;2022-07-22T03:03:52;6.00;;;4.93;;
65896;SDS011;52677;50.898;10.854;2022-07-22T03:05:53;9.38;;;5.20;;
65896;SDS011;52677;50.898;10.854;2022-07-22T03:07:53;10.38;;;4.95;;
65896;SDS011;52677;50.898;10.854;2022-07-22T03:09:53;6.57;;;5.00;;
65896;SDS011;52677;50.898;10.854;2022-07-22T03:11:54;11.63;;;5.95;;
65896;SDS011;52677;50.898;10.854;2022-07-22T03:13:54;12.70;;;5.22;;
65896;SDS011;52677;50.898;10.854;2022-07-22T03:15:55;6.30;;;4.80;;
65896;SDS011;52677;50.898;10.854;2022-07-22T03:17:55;8.40;;;5.28;;
65896;SDS011;52677;50.898;10.854;2022-07-22T03:19:55;6.20;;;4.45;;
65896;SDS011;52677;50.898;10.854;2022-07-22T03:21:56;11.95;;;5.43;;
65896;SDS011;52677;50.898;10.854;2022-07-22T03:23:56;8.63;;;4.65;;
65896;SDS011;52677;50.898;10.854;2022-07-22T03:25:56;6.97;;;4.60;;
65896;SDS011;52677;50.898;10.854;2022-07-22T03:27:57;6.45;;;4.68;;
65896;SDS011;52677;50.898;10.854;2022-07-22T03:29:57;12.02;;;5.13;;
65896;SDS011;52677;50.898;10.854;2022-07-22T03:31:58;13.80;;;6.05;;
65896;SDS011;52677;50.898;10.854;2022-07-22T03:33:58;6.15;;;4.65;;
65896;SDS011;52677;50.898;10.854;2022-07-22T03:36:00;11.30;;;4.68;;
65896;SDS011;52677;50.898;10.854;2022-07-22T03:38:01;19.42;;;5.30;;
65896;SDS011;52677;50.898;10.854;2022-07-22T03:40:02;9.70;;;5.20;;
65896;SDS011;52677;50.898;10.854;2022-07-22T03:42:03;11.23;;;6.05;;
65896;SDS011;52677;50.898;10.854;2022-07-22T03:44:04;6.32;;;4.72;;
65896;SDS011;52677;50.898;10.854;2022-07-22T03:46:04;6.65;;;5.07;;
65896;SDS011;52677;50.898;10.854;2022-07-22T03:48:05;9.77;;;5.55;;
65896;SDS011;52677;50.898;10.854;2022-07-22T03:50:05;6.30;;;5.00;;
65896;SDS011;52677;50.898;10.854;2022-07-22T03:52:06;9.10;;;5.70;;
65896;SDS011;52677;50.898;10.854;2022-07-22T03:54:06;10.63;;;5.68;;
65896;SDS011;52677;50.898;10.854;2022-07-22T03:56:07;6.85;;;5.20;;
65896;SDS011;52677;50.898;10.854;2022-07-22T03:58:07;11.48;;;5.22;;
65896;SDS011;52677;50.898;10.854;2022-07-22T04:00:07;11.98;;;5.35;;
65896;SDS011;52677;50.898;10.854;2022-07-22T04:02:08;9.77;;;5.50;;
65896;SDS011;52677;50.898;10.854;2022-07-22T04:04:09;9.15;;;5.53;;
65896;SDS011;52677;50.898;10.854;2022-07-22T04:06:09;6.95;;;5.03;;
65896;SDS011;52677;50.898;10.854;2022-07-22T04:08:10;6.13;;;4.97;;
65896;SDS011;52677;50.898;10.854;2022-07-22T04:10:10;8.07;;;5.47;;
65896;SDS011;52677;50.898;10.854;2022-07-22T04:12:12;8.98;;;5.50;;
65896;SDS011;52677;50.898;10.854;2022-07-22T04:14:12;11.57;;;5.25;;
65896;SDS011;52677;50.898;10.854;2022-07-22T04:16:12;8.98;;;5.47;;
65896;SDS011;52677;50.898;10.854;2022-07-22T04:18:13;8.15;;;5.28;;
65896;SDS011;52677;50.898;10.854;2022-07-22T04:20:15;8.95;;;5.30;;
65896;SDS011;52677;50.898;10.854;2022-07-22T04:22:15;6.93;;;5.20;;
65896;SDS011;52677;50.898;10.854;2022-07-22T04:24:15;7.55;;;5.00;;
65896;SDS011;52677;50.898;10.854;2022-07-22T04:26:16;7.43;;;4.70;;
65896;SDS011;52677;50.898;10.854;2022-07-22T04:28:16;6.10;;;5.00;;
65896;SDS011;52677;50.898;10.854;2022-07-22T04:30:17;6.38;;;4.95;;
65896;SDS011;52677;50.898;10.854;2022-07-22T04:32:17;6.45;;;5.25;;
65896;SDS011;52677;50.898;10.854;2022-07-22T04:34:17;5.93;;;4.90;;
65896;SDS011;52677;50.898;10.854;2022-07-22T04:36:18;9.18;;;5.40;;
65896;SDS011;52677;50.898;10.854;2022-07-22T04:38:18;6.57;;;5.28;;
65896;SDS011;52677;50.898;10.854;2022-07-22T04:40:18;7.68;;;6.35;;
65896;SDS011;52677;50.898;10.854;2022-07-22T04:42:19;5.45;;;4.63;;
65896;SDS011;52677;50.898;10.854;2022-07-22T04:44:19;6.10;;;4.90;;
65896;SDS011;52677;50.898;10.854;2022-07-22T04:46:19;6.40;;;5.13;;
65896;SDS011;52677;50.898;10.854;2022-07-22T04:48:20;7.95;;;5.63;;
65896;SDS011;52677;50.898;10.854;2022-07-22T04:50:20;8.48;;;6.10;;
65896;SDS011;52677;50.898;10.854;2022-07-22T04:52:21;7.22;;;5.55;;
65896;SDS011;52677;50.898;10.854;2022-07-22T04:54:21;8.70;;;5.50;;
65896;SDS011;52677;50.898;10.854;2022-07-22T04:56:22;6.80;;;5.55;;
65896;SDS011;52677;50.898;10.854;2022-07-22T04:58:22;9.57;;;6.38;;
65896;SDS011;52677;50.898;10.854;2022-07-22T05:00:23;9.32;;;6.38;;
65896;SDS011;52677;50.898;10.854;2022-07-22T05:02:24;10.82;;;6.15;;
65896;SDS011;52677;50.898;10.854;2022-07-22T05:04:24;6.03;;;5.05;;
65896;SDS011;52677;50.898;10.854;2022-07-22T05:06:24;10.85;;;6.20;;
65896;SDS011;52677;50.898;10.854;2022-07-22T05:08:25;6.40;;;5.22;;
65896;SDS011;52677;50.898;10.854;2022-07-22T05:10:25;6.28;;;5.57;;
65896;SDS011;52677;50.898;10.854;2022-07-22T05:12:27;9.20;;;5.78;;
65896;SDS011;52677;50.898;10.854;2022-07-22T05:14:27;8.43;;;6.32;;
65896;SDS011;52677;50.898;10.854;2022-07-22T05:16:28;9.85;;;6.03;;
65896;SDS011;52677;50.898;10.854;2022-07-22T05:18:28;9.88;;;5.85;;
65896;SDS011;52677;50.898;10.854;2022-07-22T05:20:28;6.32;;;5.35;;
65896;SDS011;52677;50.898;10.854;2022-07-22T05:22:29;6.20;;;5.22;;
65896;SDS011;52677;50.898;10.854;2022-07-22T05:24:29;6.38;;;4.57;;
65896;SDS011;52677;50.898;10.854;2022-07-22T05:26:29;7.53;;;4.18;;
65896;SDS011;52677;50.898;10.854;2022-07-22T05:30:32;8.25;;;5.10;;
65896;SDS011;52677;50.898;10.854;2022-07-22T05:32:33;12.05;;;5.38;;
65896;SDS011;52677;50.898;10.854;2022-07-22T05:34:33;7.35;;;4.75;;
65896;SDS011;52677;50.898;10.854;2022-07-22T05:36:33;5.80;;;4.82;;
65896;SDS011;52677;50.898;10.854;2022-07-22T05:38:34;7.40;;;5.10;;
65896;SDS011;52677;50.898;10.854;2022-07-22T05:40:34;6.18;;;4.78;;
65896;SDS011;52677;50.898;10.854;2022-07-22T05:42:34;5.78;;;5.18;;
65896;SDS011;52677;50.898;10.854;2022-07-22T05:44:35;6.88;;;5.30;;
65896;SDS011;52677;50.898;10.854;2022-07-22T05:46:35;6.18;;;4.78;;
65896;SDS011;52677;50.898;10.854;2022-07-22T05:48:35;5.75;;;5.00;;
65896;SDS011;52677;50.898;10.854;2022-07-22T05:50:36;6.80;;;4.28;;
65896;SDS011;52677;50.898;10.854;2022-07-22T05:52:37;5.50;;;4.50;;
65896;SDS011;52677;50.898;10.854;2022-07-22T05:54:38;7.68;;;4.85;;
65896;SDS011;52677;50.898;10.854;2022-07-22T05:56:39;5.13;;;4.10;;
65896;SDS011;52677;50.898;10.854;2022-07-22T05:58:40;7.47;;;4.07;;
65896;SDS011;52677;50.898;10.854;2022-07-22T06:00:41;5.53;;;4.00;;
65896;SDS011;52677;50.898;10.854;2022-07-22T06:02:42;4.88;;;4.35;;
65896;SDS011;52677;50.898;10.854;2022-07-22T06:04:42;3.58;;;2.90;;
65896;SDS011;52677;50.898;10.854;2022-07-22T06:06:42;5.55;;;2.97;;
65896;SDS011;52677;50.898;10.854;2022-07-22T06:08:43;7.15;;;2.85;;
65896;SDS011;52677;50.898;10.854;2022-07-22T06:10:44;4.18;;;2.67;;
65896;SDS011;52677;50.898;10.854;2022-07-22T06:12:44;2.33;;;1.98;;
65896;SDS011;52677;50.898;10.854;2022-07-22T06:14:44;2.50;;;2.03;;
65896;SDS011;52677;50.898;10.854;2022-07-22T06:16:46;3.20;;;2.17;;
65896;SDS011;52677;50.898;10.854;2022-07-22T06:18:46;2.80;;;2.30;;
65896;SDS011;52677;50.898;10.854;2022-07-22T06:20:46;2.38;;;2.10;;
65896;SDS011;52677;50.898;10.854;2022-07-22T06:22:47;2.30;;;1.88;;
65896;SDS011;52677;50.898;10.854;2022-07-22T06:24:48;4.30;;;2.35;;
65896;SDS011;52677;50.898;10.854;2022-07-22T06:26:48;2.92;;;2.08;;
65896;SDS011;52677;50.898;10.854;2022-07-22T06:28:49;2.58;;;2.05;;
65896;SDS011;52677;50.898;10.854;2022-07-22T06:30:49;2.60;;;2.10;;
65896;SDS011;52677;50.898;10.854;2022-07-22T06:32:50;2.75;;;1.95;;
65896;SDS011;52677;50.898;10.854;2022-07-22T06:34:50;2.00;;;1.80;;
65896;SDS011;52677;50.898;10.854;2022-07-22T06:36:50;2.15;;;1.77;;
65896;SDS011;52677;50.898;10.854;2022-07-22T06:38:51;3.00;;;2.00;;
65896;SDS011;52677;50.898;10.854;2022-07-22T06:40:51;2.10;;;1.80;;
65896;SDS011;52677;50.898;10.854;2022-07-22T06:42:52;2.22;;;1.75;;
65896;SDS011;52677;50.898;10.854;2022-07-22T06:44:52;3.03;;;1.90;;
65896;SDS011;52677;50.898;10.854;2022-07-22T06:46:52;2.70;;;1.40;;
65896;SDS011;52677;50.898;10.854;2022-07-22T06:48:53;3.60;;;1.58;;
65896;SDS011;52677;50.898;10.854;2022-07-22T06:50:53;2.53;;;1.52;;
65896;SDS011;52677;50.898;10.854;2022-07-22T06:52:54;1.83;;;1.50;;
65896;SDS011;52677;50.898;10.854;2022-07-22T06:54:54;2.00;;;1.50;;
65896;SDS011;52677;50.898;10.854;2022-07-22T06:56:55;1.60;;;1.40;;
65896;SDS011;52677;50.898;10.854;2022-07-22T06:58:55;1.45;;;1.30;;
65896;SDS011;52677;50.898;10.854;2022-07-22T07:00:55;1.83;;;1.55;;
65896;SDS011;52677;50.898;10.854;2022-07-22T07:02:59;1.60;;;1.40;;
65896;SDS011;52677;50.898;10.854;2022-07-22T07:05:00;1.90;;;1.40;;
65896;SDS011;52677;50.898;10.854;2022-07-22T07:07:00;2.20;;;1.58;;
65896;SDS011;52677;50.898;10.854;2022-07-22T07:09:00;1.90;;;1.20;;
65896;SDS011;52677;50.898;10.854;2022-07-22T07:11:01;2.20;;;1.30;;
65896;SDS011;52677;50.898;10.854;2022-07-22T07:13:01;1.58;;;1.30;;
65896;SDS011;52677;50.898;10.854;2022-07-22T07:15:02;2.53;;;1.25;;
65896;SDS011;52677;50.898;10.854;2022-07-22T07:17:03;1.30;;;1.00;;
65896;SDS011;52677;50.898;10.854;2022-07-22T07:19:03;1.75;;;1.58;;
65896;SDS011;52677;50.898;10.854;2022-07-22T07:21:04;2.53;;;1.20;;
65896;SDS011;52677;50.898;10.854;2022-07-22T07:23:04;1.33;;;1.10;;
65896;SDS011;52677;50.898;10.854;2022-07-22T07:25:05;1.92;;;1.20;;
65896;SDS011;52677;50.898;10.854;2022-07-22T07:27:07;2.55;;;1.45;;
65896;SDS011;52677;50.898;10.854;2022-07-22T07:29:08;1.35;;;1.25;;
65896;SDS011;52677;50.898;10.854;2022-07-22T07:31:08;3.72;;;1.50;;
65896;SDS011;52677;50.898;10.854;2022-07-22T07:33:08;1.73;;;1.38;;
65896;SDS011;52677;50.898;10.854;2022-07-22T07:35:09;3.42;;;1.75;;
65896;SDS011;52677;50.898;10.854;2022-07-22T07:37:10;3.80;;;1.50;;
65896;SDS011;52677;50.898;10.854;2022-07-22T07:39:10;2.10;;;1.67;;
65896;SDS011;52677;50.898;10.854;2022-07-22T07:41:11;5.90;;;1.90;;
65896;SDS011;52677;50.898;10.854;2022-07-22T07:43:11;2.22;;;1.80;;
65896;SDS011;52677;50.898;10.854;2022-07-22T07:45:12;1.77;;;1.58;;
65896;SDS011;52677;50.898;10.854;2022-07-22T07:47:12;1.95;;;1.60;;
65896;SDS011;52677;50.898;10.854;2022-07-22T07:49:17;2.03;;;1.60;;
65896;SDS011;52677;50.898;10.854;2022-07-22T07:51:17;2.70;;;1.80;;
65896;SDS011;52677;50.898;10.854;2022-07-22T07:53:18;1.88;;;1.60;;
65896;SDS011;52677;50.898;10.854;2022-07-22T07:55:18;4.28;;;1.80;;
65896;SDS011;52677;50.898;10.854;2022-07-22T07:57:20;2.80;;;1.58;;
65896;SDS011;52677;50.898;10.854;2022-07-22T07:59:20;2.22;;;1.65;;
65896;SDS011;52677;50.898;10.854;2022-07-22T08:01:20;1.50;;;1.40;;
65896;SDS011;52677;50.898;10.854;2022-07-22T08:03:21;2.78;;;1.67;;
65896;SDS011;52677;50.898;10.854;2022-07-22T08:05:21;2.15;;;1.60;;
65896;SDS011;52677;50.898;10.854;2022-07-22T08:07:22;2.10;;;1.70;;
65896;SDS011;52677;50.898;10.854;2022-07-22T08:09:22;1.70;;;1.52;;
65896;SDS011;52677;50.898;10.854;2022-07-22T08:11:22;1.70;;;1.60;;
65896;SDS011;52677;50.898;10.854;2022-07-22T08:13:23;2.67;;;1.60;;
65896;SDS011;52677;50.898;10.854;2022-07-22T08:15:24;3.33;;;2.00;;
65896;SDS011;52677;50.898;10.854;2022-07-22T08:17:28;2.53;;;1.88;;
65896;SDS011;52677;50.898;10.854;2022-07-22T08:19:28;3.33;;;2.00;;
65896;SDS011;52677;50.898;10.854;2022-07-22T08:21:29;2.28;;;1.75;;
65896;SDS011;52677;50.898;10.854;2022-07-22T08:23:29;2.15;;;1.83;;
65896;SDS011;52677;50.898;10.854;2022-07-22T08:25:30;3.25;;;2.00;;
65896;SDS011;52677;50.898;10.854;2022-07-22T08:27:30;3.85;;;1.90;;
65896;SDS011;52677;50.898;10.854;2022-07-22T08:29:31;2.65;;;2.28;;
65896;SDS011;52677;50.898;10.854;2022-07-22T08:31:31;2.92;;;1.90;;
65896;SDS011;52677;50.898;10.854;2022-07-22T08:33:34;4.07;;;2.10;;
65896;SDS011;52677;50.898;10.854;2022-07-22T08:35:35;3.45;;;2.13;;
65896;SDS011;52677;50.898;10.854;2022-07-22T08:37:35;3.65;;;2.33;;
65896;SDS011;52677;50.898;10.854;2022-07-22T08:39:36;2.90;;;2.60;;
65896;SDS011;52677;50.898;10.854;2022-07-22T08:41:37;3.03;;;2.70;;
65896;SDS011;52677;50.898;10.854;2022-07-22T08:45:42;2.83;;;2.47;;
65896;SDS011;52677;50.898;10.854;2022-07-22T08:47:46;2.92;;;2.50;;
65896;SDS011;52677;50.898;10.854;2022-07-22T08:49:48;3.88;;;2.60;;
65896;SDS011;52677;50.898;10.854;2022-07-22T08:51:48;4.00;;;2.60;;
65896;SDS011;52677;50.898;10.854;2022-07-22T08:53:48;3.78;;;2.88;;
65896;SDS011;52677;50.898;10.854;2022-07-22T08:55:49;6.05;;;2.60;;
65896;SDS011;52677;50.898;10.854;2022-07-22T08:57:49;2.80;;;2.50;;
65896;SDS011;52677;50.898;10.854;2022-07-22T08:59:51;5.30;;;2.65;;
65896;SDS011;52677;50.898;10.854;2022-07-22T09:02:00;3.33;;;2.78;;
65896;SDS011;52677;50.898;10.854;2022-07-22T09:04:11;4.45;;;2.47;;
65896;SDS011;52677;50.898;10.854;2022-07-22T09:06:12;3.20;;;2.90;;
65896;SDS011;52677;50.898;10.854;2022-07-22T09:08:12;4.15;;;2.80;;
65896;SDS011;52677;50.898;10.854;2022-07-22T09:10:14;3.25;;;2.95;;
65896;SDS011;52677;50.898;10.854;2022-07-22T09:12:16;5.18;;;2.85;;
65896;SDS011;52677;50.898;10.854;2022-07-22T09:14:17;3.60;;;2.70;;
65896;SDS011;52677;50.898;10.854;2022-07-22T09:18:51;3.25;;;2.70;;
65896;SDS011;52677;50.898;10.854;2022-07-22T09:20:57;3.20;;;2.63;;
65896;SDS011;52677;50.898;10.854;2022-07-22T09:22:59;2.80;;;2.50;;
65896;SDS011;52677;50.898;10.854;2022-07-22T09:27:26;3.65;;;2.75;;
65896;SDS011;52677;50.898;10.854;2022-07-22T09:29:27;4.23;;;3.13;;
65896;SDS011;52677;50.898;10.854;2022-07-22T09:31:31;3.72;;;2.55;;
65896;SDS011;52677;50.898;10.854;2022-07-22T09:33:34;2.70;;;2.40;;
65896;SDS011;52677;50.898;10.854;2022-07-22T09:35:35;3.30;;;2.35;;
65896;SDS011;52677;50.898;10.854;2022-07-22T09:40:12;4.20;;;2.67;;
65896;SDS011;52677;50.898;10.854;2022-07-22T09:42:16;3.60;;;2.80;;
65896;SDS011;52677;50.898;10.854;2022-07-22T09:44:20;3.53;;;2.88;;
65896;SDS011;52677;50.898;10.854;2022-07-22T09:46:43;3.83;;;2.60;;
65896;SDS011;52677;50.898;10.854;2022-07-22T09:48:42;2.67;;;2.30;;
65896;SDS011;52677;50.898;10.854;2022-07-22T09:50:43;3.25;;;2.80;;
65896;SDS011;52677;50.898;10.854;2022-07-22T09:52:44;3.08;;;2.70;;
65896;SDS011;52677;50.898;10.854;2022-07-22T09:54:45;3.72;;;2.83;;
65896;SDS011;52677;50.898;10.854;2022-07-22T09:56:46;5.38;;;3.25;;
65896;SDS011;52677;50.898;10.854;2022-07-22T09:58:46;3.33;;;3.00;;
65896;SDS011;52677;50.898;10.854;2022-07-22T10:00:47;3.38;;;3.00;;
65896;SDS011;52677;50.898;10.854;2022-07-22T10:02:48;6.53;;;2.92;;
65896;SDS011;52677;50.898;10.854;2022-07-22T10:04:52;3.85;;;3.15;;
65896;SDS011;52677;50.898;10.854;2022-07-22T10:06:54;2.95;;;2.65;;
65896;SDS011;52677;50.898;10.854;2022-07-22T10:08:56;4.35;;;3.40;;
65896;SDS011;52677;50.898;10.854;2022-07-22T10:11:03;3.60;;;3.17;;
65896;SDS011;52677;50.898;10.854;2022-07-22T10:13:06;3.42;;;3.10;;
65896;SDS011;52677;50.898;10.854;2022-07-22T10:15:08;3.83;;;2.90;;
65896;SDS011;52677;50.898;10.854;2022-07-22T10:17:10;3.13;;;2.58;;
65896;SDS011;52677;50.898;10.854;2022-07-22T10:19:13;2.83;;;2.58;;
65896;SDS011;52677;50.898;10.854;2022-07-22T10:21:14;3.92;;;2.70;;
65896;SDS011;52677;50.898;10.854;2022-07-22T10:23:15;7.65;;;2.85;;
65896;SDS011;52677;50.898;10.854;2022-07-22T10:25:15;3.88;;;2.60;;
65896;SDS011;52677;50.898;10.854;2022-07-22T10:27:36;2.90;;;2.40;;
65896;SDS011;52677;50.898;10.854;2022-07-22T10:29:47;2.88;;;2.58;;
65896;SDS011;52677;50.898;10.854;2022-07-22T10:31:48;4.40;;;3.00;;
65896;SDS011;52677;50.898;10.854;2022-07-22T10:33:56;3.72;;;3.20;;
65896;SDS011;52677;50.898;10.854;2022-07-22T10:36:00;7.63;;;3.65;;
65896;SDS011;52677;50.898;10.854;2022-07-22T10:38:03;3.25;;;2.92;;
65896;SDS011;52677;50.898;10.854;2022-07-22T10:40:14;3.30;;;3.00;;
65896;SDS011;52677;50.898;10.854;2022-07-22T10:42:14;4.43;;;2.95;;
65896;SDS011;52677;50.898;10.854;2022-07-22T10:44:15;4.72;;;3.35;;
65896;SDS011;52677;50.898;10.854;2022-07-22T10:46:52;5.03;;;3.33;;
65896;SDS011;52677;50.898;10.854;2022-07-22T10:48:54;4.35;;;3.38;;
65896;SDS011;52677;50.898;10.854;2022-07-22T10:56:39;3.60;;;3.15;;
65896;SDS011;52677;50.898;10.854;2022-07-22T11:00:35;3.90;;;3.20;;
65896;SDS011;52677;50.898;10.854;2022-07-22T11:02:36;4.45;;;3.20;;
65896;SDS011;52677;50.898;10.854;2022-07-22T11:04:37;3.53;;;3.15;;
65896;SDS011;52677;50.898;10.854;2022-07-22T11:06:38;3.50;;;3.20;;
65896;SDS011;52677;50.898;10.854;2022-07-22T11:08:39;3.75;;;3.30;;
65896;SDS011;52677;50.898;10.854;2022-07-22T11:10:46;4.32;;;3.53;;
65896;SDS011;52677;50.898;10.854;2022-07-22T11:12:48;4.63;;;3.50;;
65896;SDS011;52677;50.898;10.854;2022-07-22T11:14:49;3.90;;;3.30;;
65896;SDS011;52677;50.898;10.854;2022-07-22T11:16:50;6.72;;;2.75;;
65896;SDS011;52677;50.898;10.854;2022-07-22T11:18:52;6.93;;;3.00;;
65896;SDS011;52677;50.898;10.854;2022-07-22T11:20:57;3.97;;;3.17;;
65896;SDS011;52677;50.898;10.854;2022-07-22T11:22:58;6.47;;;3.90;;
65896;SDS011;52677;50.898;10.854;2022-07-22T11:24:59;3.67;;;3.38;;
65896;SDS011;52677;50.898;10.854;2022-07-22T11:29:02;3.67;;;3.25;;
65896;SDS011;52677;50.898;10.854;2022-07-22T11:31:07;3.92;;;3.22;;
65896;SDS011;52677;50.898;10.854;2022-07-22T11:33:08;4.68;;;3.33;;
65896;SDS011;52677;50.898;10.854;2022-07-22T11:35:11;3.85;;;3.53;;
65896;SDS011;52677;50.898;10.854;2022-07-22T11:39:14;3.50;;;3.20;;
65896;SDS011;52677;50.898;10.854;2022-07-22T11:41:20;4.70;;;3.42;;
65896;SDS011;52677;50.898;10.854;2022-07-22T11:43:20;3.72;;;3.03;;
65896;SDS011;52677;50.898;10.854;2022-07-22T11:45:21;3.55;;;3.10;;
65896;SDS011;52677;50.898;10.854;2022-07-22T11:47:21;3.63;;;3.28;;
65896;SDS011;52677;50.898;10.854;2022-07-22T11:49:21;3.88;;;3.10;;
65896;SDS011;52677;50.898;10.854;2022-07-22T11:51:26;2.70;;;2.50;;
65896;SDS011;52677;50.898;10.854;2022-07-22T11:53:28;3.20;;;2.90;;
65896;SDS011;52677;50.898;10.854;2022-07-22T11:55:28;3.75;;;3.00;;
65896;SDS011;52677;50.898;10.854;2022-07-22T11:57:29;5.88;;;3.08;;
65896;SDS011;52677;50.898;10.854;2022-07-22T11:59:29;3.85;;;3.45;;
65896;SDS011;52677;50.898;10.854;2022-07-22T12:01:31;5.90;;;3.72;;
65896;SDS011;52677;50.898;10.854;2022-07-22T12:03:34;5.97;;;3.47;;
65896;SDS011;52677;50.898;10.854;2022-07-22T12:05:36;6.55;;;3.20;;
65896;SDS011;52677;50.898;10.854;2022-07-22T12:07:36;4.10;;;3.70;;
65896;SDS011;52677;50.898;10.854;2022-07-22T12:09:37;6.00;;;3.70;;
65896;SDS011;52677;50.898;10.854;2022-07-22T12:11:39;7.22;;;3.78;;
65896;SDS011;52677;50.898;10.854;2022-07-22T12:13:42;4.03;;;3.28;;
65896;SDS011;52677;50.898;10.854;2022-07-22T12:15:43;4.13;;;3.47;;
65896;SDS011;52677;50.898;10.854;2022-07-22T12:17:44;5.80;;;3.80;;
65896;SDS011;52677;50.898;10.854;2022-07-22T12:19:44;6.20;;;3.42;;
65896;SDS011;52677;50.898;10.854;2022-07-22T12:26:04;4.95;;;3.40;;